Time;durP1;ratioP1;P1;durP2;ratioP2;P2;SDS_P1;SDS_P2;PMS_P1;PMS_P2;Temp;Humidity;BMP_temperature;BMP_pressure;BME280_temperature;BME280_humidity;BME280_pressure;Samples;Min_cycle;Max_cycle;Signal;HPM_P1;HPM_P2
2023/12/02 00:02:54;;;;;;;34.30;16.52;;;;;;;;;;6249157;28;20241;-95
2023/12/02 00:05:56;;;;;;;33.22;16.48;;;;;;;;;;6268859;28;20063;-95
2023/12/02 00:08:58;;;;;;;35.35;16.80;;;;;;;;;;6268561;28;20056;-96
2023/12/02 00:12:00;;;;;;;35.65;15.73;;;;;;;;;;6271821;28;20063;-94
2023/12/02 00:15:04;;;;;;;31.05;14.98;;;;;;;;;;6270408;28;20051;-96
2023/12/02 00:18:26;;;;;;;;;;;;;;;;;;6200800;28;20471;-96
2023/12/02 00:21:28;;;;;;;31.65;14.82;;;;;;;;;;6198537;28;19989;-96
2023/12/02 00:24:30;;;;;;;29.63;14.05;;;;;;;;;;6194809;28;20113;-96
2023/12/02 00:27:32;;;;;;;31.98;14.07;;;;;;;;;;6198657;28;20065;-96
2023/12/02 00:30:36;;;;;;;27.33;13.82;;;;;;;;;;6196711;28;20073;-96
2023/12/02 00:33:38;;;;;;;29.70;14.23;;;;;;;;;;6182880;28;20056;-96
2023/12/02 00:36:40;;;;;;;27.10;13.75;;;;;;;;;;6196590;28;21252;-96
2023/12/02 00:39:42;;;;;;;34.72;17.23;;;;;;;;;;6201291;28;20307;-96
2023/12/02 00:42:44;;;;;;;37.78;17.30;;;;;;;;;;6242612;28;20065;-95
2023/12/02 00:45:48;;;;;;;63.75;29.92;;;;;;;;;;6273638;28;20057;-95
2023/12/02 00:48:50;;;;;;;37.72;18.55;;;;;;;;;;6246555;28;20124;-96
2023/12/02 00:51:52;;;;;;;62.70;31.92;;;;;;;;;;6271203;28;20049;-95
2023/12/02 00:54:54;;;;;;;49.95;26.30;;;;;;;;;;6271381;28;20053;-94
2023/12/02 00:57:56;;;;;;;39.78;18.08;;;;;;;;;;6272490;28;20077;-96
2023/12/02 01:04:15;;;;;;;39.35;18.45;;;;;;;;;;6271698;28;20064;-94
2023/12/02 01:07:17;;;;;;;32.45;14.77;;;;;;;;;;6275136;28;20042;-94
2023/12/02 01:10:19;;;;;;;35.65;15.52;;;;;;;;;;6273266;28;20326;-96
2023/12/02 01:13:21;;;;;;;32.25;14.95;;;;;;;;;;6277076;28;21114;-96
2023/12/02 01:16:24;;;;;;;35.17;14.82;;;;;;;;;;6253280;28;20333;-96
2023/12/02 01:19:26;;;;;;;37.37;15.37;;;;;;;;;;6270058;28;20120;-96
2023/12/02 01:22:28;;;;;;;36.20;15.52;;;;;;;;;;6269816;28;20072;-96
2023/12/02 01:25:31;;;;;;;37.83;16.40;;;;;;;;;;6269207;28;20341;-96
2023/12/02 01:28:33;;;;;;;33.28;15.18;;;;;;;;;;6265176;28;20050;-96
2023/12/02 01:31:36;;;;;;;41.10;14.90;;;;;;;;;;6271634;28;20049;-95
2023/12/02 01:34:38;;;;;;;31.75;15.20;;;;;;;;;;6270944;28;20056;-96
2023/12/02 01:37:41;;;;;;;41.60;15.48;;;;;;;;;;6273188;28;20048;-96
2023/12/02 01:40:43;;;;;;;34.85;16.13;;;;;;;;;;6270676;28;20120;-94
2023/12/02 01:43:45;;;;;;;35.22;15.90;;;;;;;;;;6278082;28;20044;-96
2023/12/02 01:50:06;;;;;;;36.15;15.38;;;;;;;;;;6268909;28;20049;-96
2023/12/02 01:53:27;;;;;;;41.83;16.80;;;;;;;;;;6274932;28;20041;-96
2023/12/02 01:56:29;;;;;;;38.22;15.88;;;;;;;;;;6276436;28;20053;-95
2023/12/02 01:59:31;;;;;;;44.58;18.38;;;;;;;;;;6275905;28;20055;-96
2023/12/02 02:02:35;;;;;;;45.83;18.30;;;;;;;;;;6272793;28;20049;-96
2023/12/02 02:05:37;;;;;;;52.33;19.02;;;;;;;;;;6276093;28;20053;-96
2023/12/02 02:08:39;;;;;;;45.95;18.10;;;;;;;;;;6259195;28;20116;-96
2023/12/02 02:11:41;;;;;;;48.38;20.35;;;;;;;;;;6256992;28;20060;-96
2023/12/02 02:14:43;;;;;;;48.90;18.65;;;;;;;;;;6275422;28;20238;-96
2023/12/02 02:17:46;;;;;;;47.80;18.95;;;;;;;;;;6274235;28;20291;-96
2023/12/02 02:20:50;;;;;;;30.40;13.33;;;;;;;;;;6272792;28;20360;-96
2023/12/02 02:27:13;;;;;;;48.63;19.42;;;;;;;;;;6248363;28;20061;-96
2023/12/02 02:30:15;;;;;;;47.72;19.02;;;;;;;;;;6270533;28;20123;-96
2023/12/02 02:33:17;;;;;;;48.05;19.25;;;;;;;;;;6272162;28;20049;-96
2023/12/02 02:36:19;;;;;;;48.10;20.27;;;;;;;;;;6277127;28;20045;-96
2023/12/02 02:39:24;;;;;;;43.10;18.20;;;;;;;;;;6273484;28;20133;-95
2023/12/02 02:42:26;;;;;;;39.40;18.88;;;;;;;;;;6255813;28;20334;-95
2023/12/02 02:45:28;;;;;;;47.03;19.02;;;;;;;;;;6271872;28;20067;-96
2023/12/02 02:48:30;;;;;;;41.88;17.23;;;;;;;;;;6251794;28;20326;-96
2023/12/02 02:51:32;;;;;;;37.88;16.67;;;;;;;;;;6269373;28;20044;-96
2023/12/02 02:54:36;;;;;;;38.47;16.02;;;;;;;;;;6274583;28;20113;-96
2023/12/02 02:57:38;;;;;;;37.33;16.25;;;;;;;;;;6269935;28;20052;-96
2023/12/02 03:00:39;;;;;;;37.78;15.45;;;;;;;;;;6274932;28;20051;-96
2023/12/02 03:03:41;;;;;;;37.10;15.90;;;;;;;;;;6274066;28;20058;-96
2023/12/02 03:06:43;;;;;;;36.13;16.55;;;;;;;;;;6254821;28;20044;-94
2023/12/02 03:09:47;;;;;;;36.17;15.80;;;;;;;;;;6275112;28;20068;-96
2023/12/02 03:12:48;;;;;;;38.07;16.67;;;;;;;;;;6276485;28;20055;-96
2023/12/02 03:15:50;;;;;;;37.20;16.17;;;;;;;;;;6272192;28;20067;-96
2023/12/02 03:18:53;;;;;;;37.78;16.42;;;;;;;;;;6277055;28;20328;-96
2023/12/02 03:21:55;;;;;;;37.92;16.88;;;;;;;;;;6274288;28;20329;-96
2023/12/02 03:31:34;;;;;;;29.55;13.80;;;;;;;;;;6252440;28;20316;-96
2023/12/02 03:34:36;;;;;;;33.15;14.50;;;;;;;;;;6272515;28;20053;-96
2023/12/02 03:37:39;;;;;;;31.45;15.10;;;;;;;;;;6273311;28;20328;-92
2023/12/02 03:40:42;;;;;;;34.33;14.98;;;;;;;;;;6272103;28;20495;-96
2023/12/02 03:43:44;;;;;;;28.95;14.93;;;;;;;;;;6256342;28;20044;-96
2023/12/02 03:46:46;;;;;;;32.80;15.73;;;;;;;;;;6277424;28;20061;-95
2023/12/02 03:49:48;;;;;;;29.85;14.07;;;;;;;;;;6272571;28;20500;-94
2023/12/02 03:52:50;;;;;;;30.48;14.07;;;;;;;;;;6274080;28;20049;-94
2023/12/02 03:59:09;;;;;;;29.70;14.93;;;;;;;;;;6245272;28;20053;-94
2023/12/02 04:02:11;;;;;;;29.73;14.40;;;;;;;;;;6268230;28;20059;-96
2023/12/02 04:05:13;;;;;;;29.90;14.55;;;;;;;;;;6272028;28;20515;-95
2023/12/02 04:08:17;;;;;;;28.45;14.43;;;;;;;;;;6274903;28;20049;-95
2023/12/02 04:11:20;;;;;;;29.60;14.35;;;;;;;;;;6272305;28;20235;-96
2023/12/02 04:14:22;;;;;;;33.40;14.83;;;;;;;;;;6264153;28;20057;-96
2023/12/02 04:17:24;;;;;;;32.53;15.18;;;;;;;;;;6274160;28;20045;-93
2023/12/02 04:20:26;;;;;;;33.63;15.20;;;;;;;;;;6268474;28;20112;-95
2023/12/02 04:23:28;;;;;;;31.55;13.80;;;;;;;;;;6271767;28;20088;-96
2023/12/02 04:29:50;;;;;;;30.17;14.88;;;;;;;;;;6270594;28;20057;-96
2023/12/02 04:32:53;;;;;;;39.63;15.98;;;;;;;;;;6269272;28;20087;-96
2023/12/02 04:35:55;;;;;;;30.75;14.80;;;;;;;;;;6277118;28;20128;-95
2023/12/02 04:38:57;;;;;;;34.38;16.02;;;;;;;;;;6269822;28;20046;-96
2023/12/02 04:45:16;;;;;;;31.45;14.48;;;;;;;;;;6222316;28;20052;-95
2023/12/02 04:48:18;;;;;;;34.25;15.80;;;;;;;;;;6219386;28;20049;-94
2023/12/02 04:51:20;;;;;;;31.60;14.52;;;;;;;;;;6195757;28;20049;-95
2023/12/02 04:54:22;;;;;;;36.83;15.88;;;;;;;;;;6222591;28;20050;-94
2023/12/02 04:57:26;;;;;;;38.70;16.73;;;;;;;;;;6222733;28;20181;-94
2023/12/02 05:00:28;;;;;;;43.20;16.63;;;;;;;;;;6220320;28;20092;-94
2023/12/02 05:03:30;;;;;;;45.63;18.08;;;;;;;;;;6216674;28;20056;-96
2023/12/02 05:06:32;;;;;;;43.75;18.98;;;;;;;;;;6220397;28;20145;-96
2023/12/02 05:09:34;;;;;;;45.58;18.48;;;;;;;;;;6221584;28;20050;-96
2023/12/02 05:15:53;;;;;;;46.13;17.38;;;;;;;;;;6166664;28;20080;-96
2023/12/02 05:18:55;;;;;;;39.75;16.55;;;;;;;;;;6273977;28;20049;-96
2023/12/02 05:21:57;;;;;;;39.70;17.52;;;;;;;;;;6277250;28;20045;-96
2023/12/02 05:24:59;;;;;;;37.75;15.73;;;;;;;;;;6275924;28;20226;-95
2023/12/02 05:28:02;;;;;;;40.08;16.35;;;;;;;;;;6274831;28;20053;-96
2023/12/02 05:31:05;;;;;;;39.30;16.77;;;;;;;;;;6274458;28;20063;-96
2023/12/02 05:37:22;;;;;;;46.67;16.95;;;;;;;;;;6258591;28;20613;-96
2023/12/02 05:40:24;;;;;;;35.30;15.85;;;;;;;;;;6277747;28;20237;-96
2023/12/02 05:43:27;;;;;;;39.35;16.55;;;;;;;;;;6275152;28;20325;-96
2023/12/02 05:46:29;;;;;;;40.03;15.63;;;;;;;;;;6272162;28;20045;-96
2023/12/02 05:49:32;;;;;;;32.80;15.85;;;;;;;;;;6272971;28;20356;-96
2023/12/02 05:52:34;;;;;;;35.55;15.55;;;;;;;;;;6270346;28;20049;-94
2023/12/02 05:55:36;;;;;;;33.03;15.57;;;;;;;;;;6275242;28;20356;-96
2023/12/02 05:58:41;;;;;;;33.55;15.02;;;;;;;;;;6272787;28;20394;-96
2023/12/02 06:01:43;;;;;;;37.93;15.77;;;;;;;;;;6256785;28;20232;-96
2023/12/02 06:04:45;;;;;;;34.25;15.45;;;;;;;;;;6273688;28;20041;-96
2023/12/02 06:07:47;;;;;;;34.60;16.23;;;;;;;;;;6274608;28;20080;-94
2023/12/02 06:10:49;;;;;;;35.72;14.73;;;;;;;;;;6271085;28;20274;-96
2023/12/02 06:13:53;;;;;;;31.83;14.88;;;;;;;;;;6270149;28;20061;-95
2023/12/02 06:16:55;;;;;;;36.67;14.98;;;;;;;;;;6253357;28;20128;-96
2023/12/02 06:19:57;;;;;;;38.22;15.82;;;;;;;;;;6276046;28;20076;-96
2023/12/02 06:22:58;;;;;;;38.28;15.85;;;;;;;;;;6267008;28;20053;-96
2023/12/02 06:26:00;;;;;;;38.42;16.10;;;;;;;;;;6272082;28;20124;-95
2023/12/02 06:29:04;;;;;;;30.20;14.30;;;;;;;;;;6272526;28;20049;-96
2023/12/02 06:32:06;;;;;;;36.53;15.77;;;;;;;;;;6273477;28;20290;-96
2023/12/02 06:35:09;;;;;;;39.30;15.63;;;;;;;;;;6273429;28;20313;-96
2023/12/02 06:38:11;;;;;;;38.90;16.13;;;;;;;;;;6267860;28;20112;-95
2023/12/02 06:41:14;;;;;;;37.85;15.50;;;;;;;;;;6273351;28;20348;-96
2023/12/02 06:44:17;;;;;;;36.47;16.70;;;;;;;;;;6272145;28;20051;-95
2023/12/02 06:47:19;;;;;;;40.03;16.05;;;;;;;;;;6270161;28;20044;-96
2023/12/02 06:50:22;;;;;;;38.83;16.23;;;;;;;;;;6271951;28;20060;-95
2023/12/02 06:53:24;;;;;;;36.50;14.98;;;;;;;;;;6273195;28;20053;-95
2023/12/02 06:56:26;;;;;;;38.90;15.27;;;;;;;;;;6270422;28;20112;-96
2023/12/02 07:02:46;;;;;;;31.08;13.63;;;;;;;;;;6238886;28;20064;-96
2023/12/02 07:05:48;;;;;;;31.30;13.13;;;;;;;;;;6283096;28;20045;-96
2023/12/02 07:08:50;;;;;;;26.75;12.05;;;;;;;;;;6282629;28;20108;-96
2023/12/02 07:11:52;;;;;;;29.83;11.88;;;;;;;;;;6282438;28;20055;-96
2023/12/02 07:14:55;;;;;;;20.63;9.82;;;;;;;;;;6283070;28;20059;-96
2023/12/02 07:17:57;;;;;;;23.63;10.33;;;;;;;;;;6271818;28;20056;-96
2023/12/02 07:21:02;;;;;;;21.05;9.13;;;;;;;;;;6286031;28;20049;-96
2023/12/02 07:24:04;;;;;;;19.00;9.10;;;;;;;;;;6283510;28;20358;-96
2023/12/02 07:27:05;;;;;;;21.02;9.60;;;;;;;;;;6207957;28;20074;-96
2023/12/02 07:33:27;;;;;;;17.00;8.90;;;;;;;;;;6259212;28;20094;-96
2023/12/02 07:36:29;;;;;;;17.85;9.38;;;;;;;;;;6261469;28;20045;-96
2023/12/02 07:39:31;;;;;;;20.42;9.18;;;;;;;;;;6282987;28;20264;-96
2023/12/02 07:42:33;;;;;;;15.60;8.63;;;;;;;;;;6282066;28;20282;-96
2023/12/02 07:45:36;;;;;;;14.32;8.60;;;;;;;;;;6283828;28;20049;-96
2023/12/02 07:52:14;;;;;;;15.73;8.45;;;;;;;;;;6222063;28;20040;-96
2023/12/02 07:55:16;;;;;;;16.58;9.10;;;;;;;;;;6279014;28;20055;-96
2023/12/02 07:58:18;;;;;;;14.35;8.57;;;;;;;;;;6282591;28;20057;-96
2023/12/02 08:04:42;;;;;;;20.20;9.63;;;;;;;;;;6270791;28;20052;-96
2023/12/02 08:07:45;;;;;;;15.32;9.25;;;;;;;;;;6279902;28;20238;-95
2023/12/02 08:10:48;;;;;;;14.52;9.63;;;;;;;;;;6273959;28;20055;-96
2023/12/02 08:17:09;;;;;;;14.65;8.05;;;;;;;;;;6226886;28;20049;-96
2023/12/02 08:20:11;;;;;;;16.50;9.07;;;;;;;;;;6280054;28;20263;-96
2023/12/02 08:23:13;;;;;;;15.15;9.05;;;;;;;;;;6279814;28;20041;-96
2023/12/02 08:26:16;;;;;;;14.25;8.65;;;;;;;;;;6278021;28;20053;-95
2023/12/02 08:29:18;;;;;;;16.50;9.57;;;;;;;;;;6276577;28;20067;-96
2023/12/02 08:35:37;;;;;;;13.32;8.52;;;;;;;;;;6260840;28;20048;-96
2023/12/02 08:38:39;;;;;;;15.88;8.23;;;;;;;;;;6279474;28;20041;-95
2023/12/02 08:41:41;;;;;;;13.63;8.40;;;;;;;;;;6271580;28;20049;-96
2023/12/02 08:44:43;;;;;;;13.88;7.82;;;;;;;;;;6275378;28;20108;-96
2023/12/02 08:47:46;;;;;;;14.95;7.25;;;;;;;;;;6262999;28;20068;-96
2023/12/02 08:50:48;;;;;;;15.30;7.30;;;;;;;;;;6279410;28;20055;-96
2023/12/02 08:53:55;;;;;;;9.32;5.50;;;;;;;;;;6280309;28;20336;-96
2023/12/02 08:56:57;;;;;;;7.15;4.18;;;;;;;;;;6249157;28;20057;-96
2023/12/02 08:59:59;;;;;;;5.63;2.83;;;;;;;;;;6272610;28;20048;-96
2023/12/02 09:06:18;;;;;;;5.00;1.65;;;;;;;;;;6178390;28;20235;-96
2023/12/02 09:09:20;;;;;;;3.00;1.00;;;;;;;;;;6277104;28;20057;-96
2023/12/02 09:12:22;;;;;;;2.75;1.05;;;;;;;;;;6278911;28;20063;-96
2023/12/02 09:18:57;;;;;;;1.45;0.73;;;;;;;;;;6254677;28;20130;-96
2023/12/02 09:28:44;;;;;;;1.20;0.70;;;;;;;;;;6254400;28;20045;-96
2023/12/02 09:31:46;;;;;;;2.00;0.82;;;;;;;;;;6276848;28;20057;-95
2023/12/02 09:38:12;;;;;;;1.02;0.50;;;;;;;;;;6247260;28;20060;-96
2023/12/02 09:41:22;;;;;;;1.10;0.60;;;;;;;;;;6275985;28;20053;-96
2023/12/02 09:44:29;;;;;;;1.35;1.17;;;;;;;;;;6275832;28;20045;-94
2023/12/02 09:47:33;;;;;;;1.08;0.60;;;;;;;;;;6275649;28;20244;-95
2023/12/02 09:54:06;;;;;;;0.68;0.50;;;;;;;;;;6263789;28;20060;-96
2023/12/02 09:57:13;;;;;;;1.52;0.73;;;;;;;;;;6283139;28;20087;-96
2023/12/02 10:11:03;;;;;;;0.98;0.52;;;;;;;;;;6271731;28;20083;-96
2023/12/02 10:14:11;;;;;;;0.80;0.40;;;;;;;;;;6280297;28;20048;-96
2023/12/02 10:17:13;;;;;;;1.95;0.50;;;;;;;;;;6274921;28;20051;-96
2023/12/02 10:20:17;;;;;;;1.25;0.38;;;;;;;;;;6283252;28;20045;-96
2023/12/02 10:26:43;;;;;;;2.70;0.45;;;;;;;;;;6262030;28;20057;-96
2023/12/02 10:29:50;;;;;;;1.25;0.47;;;;;;;;;;6236309;28;20041;-96
2023/12/02 10:46:45;;;;;;;1.38;0.30;;;;;;;;;;6268104;28;20052;-96
2023/12/02 10:49:49;;;;;;;0.88;0.40;;;;;;;;;;6280543;28;20245;-96
2023/12/02 10:52:58;;;;;;;1.10;0.47;;;;;;;;;;6282470;28;20048;-96
2023/12/02 10:56:07;;;;;;;1.67;0.60;;;;;;;;;;6265538;28;20061;-96
2023/12/02 10:59:09;;;;;;;3.75;0.70;;;;;;;;;;6280819;28;20120;-96
2023/12/02 11:02:30;;;;;;;1.75;0.60;;;;;;;;;;6262537;28;20049;-96
2023/12/02 11:08:55;;;;;;;1.80;1.40;;;;;;;;;;6276944;28;20052;-96
2023/12/02 11:15:23;;;;;;;1.85;0.85;;;;;;;;;;6271498;28;20053;-96
2023/12/02 11:18:31;;;;;;;1.55;0.90;;;;;;;;;;6284461;28;20037;-96
2023/12/02 11:42:19;;;;;;;1.75;1.00;;;;;;;;;;6194586;28;20142;-94
2023/12/02 11:55:57;;;;;;;2.08;0.88;;;;;;;;;;6120503;29;20059;-96
2023/12/02 11:59:05;;;;;;;1.90;0.90;;;;;;;;;;6122961;29;20067;-95
2023/12/02 12:09:30;;;;;;;;;;;;;;;;;;6074824;29;20115;-95
2023/12/02 12:12:33;;;;;;;2.63;1.02;;;;;;;;;;6090633;29;19926;-95
2023/12/02 12:15:35;;;;;;;1.83;1.02;;;;;;;;;;6124114;29;20052;-94
2023/12/02 12:18:38;;;;;;;3.03;0.85;;;;;;;;;;6136101;28;20053;-96
2023/12/02 12:21:41;;;;;;;2.53;0.77;;;;;;;;;;6171644;28;20058;-95
2023/12/02 12:24:42;;;;;;;0.50;0.22;;;;;;;;;;6168004;28;20047;-96
2023/12/02 12:27:44;;;;;;;0.82;0.30;;;;;;;;;;6170256;28;20158;-96
2023/12/02 12:30:49;;;;;;;1.33;0.50;;;;;;;;;;6159052;28;20054;-96
2023/12/02 12:37:10;;;;;;;1.13;0.50;;;;;;;;;;6069923;28;20097;-96
2023/12/02 12:43:28;;;;;;;1.65;0.70;;;;;;;;;;6266432;28;20325;-94
2023/12/02 12:53:12;;;;;;;0.68;0.40;;;;;;;;;;6208458;28;20102;-95
2023/12/02 12:56:18;;;;;;;1.70;0.45;;;;;;;;;;6273085;28;20055;-96
2023/12/02 12:59:27;;;;;;;2.08;0.60;;;;;;;;;;6264387;28;20056;-96
2023/12/02 13:12:51;;;;;;;0.77;0.30;;;;;;;;;;6188290;28;20050;-96
2023/12/02 13:19:45;;;;;;;0.85;0.40;;;;;;;;;;6050157;29;20441;-96
2023/12/02 13:29:23;;;;;;;0.47;0.30;;;;;;;;;;6183568;28;20046;-96
2023/12/02 13:32:25;;;;;;;;;;;;;;;;;;6167708;28;20046;-96
2023/12/02 13:35:31;;;;;;;0.40;0.22;;;;;;;;;;6185046;28;19926;-96
2023/12/02 13:38:35;;;;;;;1.13;0.52;;;;;;;;;;6182999;28;20053;-96
2023/12/02 13:45:05;;;;;;;1.63;0.70;;;;;;;;;;6159591;28;20065;-96
2023/12/02 13:48:14;;;;;;;0.77;0.47;;;;;;;;;;6238519;28;20057;-95
2023/12/02 13:51:26;;;;;;;1.25;0.40;;;;;;;;;;6253025;28;20064;-95
2023/12/02 13:55:09;;;;;;;1.63;0.30;;;;;;;;;;6159256;28;20057;-94
2023/12/02 13:58:20;;;;;;;1.08;0.40;;;;;;;;;;6228960;28;20046;-96
2023/12/02 14:01:25;;;;;;;1.00;0.45;;;;;;;;;;6229268;28;20046;-96
2023/12/02 14:20:26;;;;;;;0.85;0.45;;;;;;;;;;6112321;29;20083;-95
2023/12/02 14:23:43;;;;;;;;;;;;;;;;;;6130404;29;20069;-96
2023/12/02 14:38:03;;;;;;;1.75;0.30;;;;;;;;;;6273395;28;20060;-96
2023/12/02 14:41:16;;;;;;;0.80;0.35;;;;;;;;;;6204056;28;20048;-95
2023/12/02 14:44:30;;;;;;;0.57;0.15;;;;;;;;;;6275259;28;20531;-96
2023/12/02 14:47:39;;;;;;;0.60;0.10;;;;;;;;;;6275425;28;20096;-96
2023/12/02 14:57:16;;;;;;;1.83;0.30;;;;;;;;;;6218121;28;20077;-96
2023/12/02 15:00:21;;;;;;;0.10;0.10;;;;;;;;;;6230120;28;20057;-96
2023/12/02 15:03:29;;;;;;;0.65;0.28;;;;;;;;;;6279532;28;20053;-96
2023/12/02 15:06:33;;;;;;;0.55;0.20;;;;;;;;;;6280538;28;20119;-96
2023/12/02 15:09:35;;;;;;;0.88;0.30;;;;;;;;;;6284848;28;20057;-96
2023/12/02 15:12:38;;;;;;;0.57;0.17;;;;;;;;;;6271197;28;20052;-96
2023/12/02 15:15:42;;;;;;;0.38;0.20;;;;;;;;;;6278860;28;20040;-96
2023/12/02 15:18:45;;;;;;;0.25;0.20;;;;;;;;;;6275507;28;20064;-96
2023/12/02 15:22:21;;;;;;;0.57;0.30;;;;;;;;;;6283375;28;20227;-96
2023/12/02 15:25:23;;;;;;;0.30;0.20;;;;;;;;;;6262462;28;20090;-96
2023/12/02 15:28:47;;;;;;;0.38;0.20;;;;;;;;;;6250765;28;20045;-96
2023/12/02 15:31:49;;;;;;;1.05;0.20;;;;;;;;;;6280353;28;20053;-95
2023/12/02 15:34:52;;;;;;;0.50;0.20;;;;;;;;;;6279478;28;20053;-96
2023/12/02 15:41:12;;;;;;;2.15;0.30;;;;;;;;;;6252833;28;20056;-96
2023/12/02 15:44:14;;;;;;;1.38;0.20;;;;;;;;;;6281293;28;20045;-96
2023/12/02 15:47:29;;;;;;;112.75;54.53;;;;;;;;;;6275502;28;20037;-96
2023/12/02 15:50:34;;;;;;;66.97;28.38;;;;;;;;;;6288767;28;20914;-96
2023/12/02 15:56:59;;;;;;;103.97;39.33;;;;;;;;;;6253990;28;20118;-96
2023/12/02 16:00:01;;;;;;;8.30;2.92;;;;;;;;;;6258509;28;20716;-96
2023/12/02 16:03:04;;;;;;;0.55;0.20;;;;;;;;;;6285677;28;20073;-96
2023/12/02 16:09:31;;;;;;;1.23;0.30;;;;;;;;;;6230048;28;20048;-96
2023/12/02 16:12:35;;;;;;;0.93;0.40;;;;;;;;;;6258176;28;20124;-96
2023/12/02 16:15:37;;;;;;;0.40;0.25;;;;;;;;;;6234644;28;20048;-95
2023/12/02 16:18:42;;;;;;;1.05;0.20;;;;;;;;;;6229523;28;20069;-96
2023/12/02 16:21:44;;;;;;;0.68;0.30;;;;;;;;;;6230338;28;20068;-96
2023/12/02 16:35:42;;;;;;;2.17;0.17;;;;;;;;;;6246540;28;20064;-96
2023/12/02 16:38:44;;;;;;;0.47;0.20;;;;;;;;;;6253080;28;20091;-96
2023/12/02 16:45:16;;;;;;;3.38;0.35;;;;;;;;;;6186611;28;20078;-96
2023/12/02 16:48:18;;;;;;;0.98;0.45;;;;;;;;;;6184682;28;20158;-96
2023/12/02 16:51:20;;;;;;;1.40;0.50;;;;;;;;;;6183675;28;20098;-96
2023/12/02 16:54:22;;;;;;;0.52;0.30;;;;;;;;;;6165248;28;20114;-96
2023/12/02 17:00:43;;;;;;;0.70;0.40;;;;;;;;;;6123650;29;20118;-96
2023/12/02 17:03:47;;;;;;;1.50;0.40;;;;;;;;;;6139930;29;20056;-95
2023/12/02 17:06:49;;;;;;;1.25;0.40;;;;;;;;;;6133659;29;20048;-96
2023/12/02 17:09:51;;;;;;;0.82;0.43;;;;;;;;;;6136465;29;20059;-96
2023/12/02 17:12:57;;;;;;;0.50;0.30;;;;;;;;;;6137765;29;20295;-96
2023/12/02 17:15:59;;;;;;;0.57;0.30;;;;;;;;;;6149685;28;20059;-95
2023/12/02 17:22:24;;;;;;;0.28;0.15;;;;;;;;;;6152077;28;20046;-96
2023/12/02 17:25:47;;;;;;;0.82;0.40;;;;;;;;;;6187965;28;20311;-96
2023/12/02 17:32:36;;;;;;;0.55;0.20;;;;;;;;;;6244621;28;20046;-96
2023/12/02 17:35:58;;;;;;;0.65;0.30;;;;;;;;;;6206261;28;20053;-94
2023/12/02 17:39:07;;;;;;;2.20;0.40;;;;;;;;;;6237097;28;20054;-96
2023/12/02 17:42:11;;;;;;;0.80;0.30;;;;;;;;;;6216487;28;20057;-95
2023/12/02 17:48:33;;;;;;;0.32;0.20;;;;;;;;;;6138981;28;19962;-94
2023/12/02 17:51:36;;;;;;;1.35;0.50;;;;;;;;;;6200114;28;20045;-96
2023/12/02 17:54:38;;;;;;;0.75;0.40;;;;;;;;;;6230234;28;20113;-96
2023/12/02 17:57:39;;;;;;;0.30;0.22;;;;;;;;;;6230315;28;20050;-95
2023/12/02 18:00:43;;;;;;;0.80;0.30;;;;;;;;;;6232730;28;20045;-95
2023/12/02 18:03:45;;;;;;;1.02;0.30;;;;;;;;;;6234695;28;20342;-96
2023/12/02 18:06:47;;;;;;;0.73;0.38;;;;;;;;;;6233383;28;20053;-96
2023/12/02 18:09:49;;;;;;;1.38;0.40;;;;;;;;;;6234630;28;20053;-94
2023/12/02 18:12:51;;;;;;;2.13;0.57;;;;;;;;;;6232513;28;20234;-96
2023/12/02 18:15:54;;;;;;;0.50;0.30;;;;;;;;;;6232146;28;20049;-96
2023/12/02 18:18:57;;;;;;;1.73;0.50;;;;;;;;;;6235458;28;20117;-96
2023/12/02 18:22:03;;;;;;;0.70;0.40;;;;;;;;;;6214164;28;20070;-94
2023/12/02 18:25:06;;;;;;;0.68;0.28;;;;;;;;;;6230209;28;20274;-95
2023/12/02 18:28:08;;;;;;;0.90;0.50;;;;;;;;;;6212963;28;20073;-95
2023/12/02 18:34:47;;;;;;;1.33;0.50;;;;;;;;;;6232415;28;20053;-95
2023/12/02 18:37:50;;;;;;;1.52;0.57;;;;;;;;;;6232114;28;20064;-95
2023/12/02 18:40:51;;;;;;;0.60;0.40;;;;;;;;;;6231111;28;20056;-94
2023/12/02 18:43:53;;;;;;;0.70;0.32;;;;;;;;;;6232974;28;20058;-96
2023/12/02 18:46:57;;;;;;;1.50;0.30;;;;;;;;;;6234255;28;20562;-96
2023/12/02 18:49:59;;;;;;;1.50;0.40;;;;;;;;;;6233489;28;20061;-95
2023/12/02 18:53:00;;;;;;;1.90;0.40;;;;;;;;;;6234404;28;20121;-96
2023/12/02 18:56:02;;;;;;;1.02;0.40;;;;;;;;;;6234796;28;20057;-96
2023/12/02 18:59:04;;;;;;;0.77;0.50;;;;;;;;;;6232920;28;20053;-96
2023/12/02 19:02:08;;;;;;;1.20;0.60;;;;;;;;;;6229744;28;20089;-96
2023/12/02 19:05:11;;;;;;;1.13;0.68;;;;;;;;;;6222740;28;20076;-96
2023/12/02 19:08:13;;;;;;;0.88;0.50;;;;;;;;;;6231227;28;20125;-95
2023/12/02 19:11:15;;;;;;;1.27;0.60;;;;;;;;;;6231201;28;20041;-95
2023/12/02 19:14:18;;;;;;;1.25;0.57;;;;;;;;;;6227383;28;20084;-96
2023/12/02 19:17:22;;;;;;;0.93;0.45;;;;;;;;;;6226684;28;20056;-96
2023/12/02 19:20:27;;;;;;;1.33;0.60;;;;;;;;;;6214914;28;20058;-96
2023/12/02 19:23:29;;;;;;;0.52;0.30;;;;;;;;;;6231802;28;20072;-96
2023/12/02 19:26:33;;;;;;;1.60;0.63;;;;;;;;;;6230044;28;20382;-96
2023/12/02 19:29:36;;;;;;;1.30;0.55;;;;;;;;;;6199133;28;20050;-96
2023/12/02 19:33:41;;;;;;;1.10;0.60;;;;;;;;;;6229628;28;20234;-95
2023/12/02 19:36:43;;;;;;;1.25;0.57;;;;;;;;;;6230704;28;20116;-94
2023/12/02 19:39:52;;;;;;;3.80;0.55;;;;;;;;;;6231781;28;20054;-96
2023/12/02 19:42:54;;;;;;;1.77;0.70;;;;;;;;;;6228987;28;20053;-96
2023/12/02 19:45:56;;;;;;;1.23;0.32;;;;;;;;;;6215893;28;20060;-96
2023/12/02 19:49:05;;;;;;;1.88;0.63;;;;;;;;;;6233772;28;20057;-96
2023/12/02 19:52:07;;;;;;;1.27;0.60;;;;;;;;;;6204216;28;20045;-96
2023/12/02 19:55:09;;;;;;;0.95;0.50;;;;;;;;;;6218089;28;20054;-96
2023/12/02 19:58:12;;;;;;;1.25;0.73;;;;;;;;;;6212571;28;20045;-96
2023/12/02 20:01:33;;;;;;;2.00;0.80;;;;;;;;;;6217695;28;20045;-96
2023/12/02 20:04:39;;;;;;;0.95;0.52;;;;;;;;;;6231061;28;20045;-94
2023/12/02 20:07:43;;;;;;;1.67;0.73;;;;;;;;;;6214316;28;20057;-96
2023/12/02 20:10:46;;;;;;;1.53;0.60;;;;;;;;;;6229409;28;20049;-96
2023/12/02 20:13:49;;;;;;;1.27;0.60;;;;;;;;;;6229666;28;20062;-96
2023/12/02 20:16:51;;;;;;;1.85;0.75;;;;;;;;;;6215140;28;20049;-96
2023/12/02 20:23:15;;;;;;;3.03;0.50;;;;;;;;;;6148251;28;20051;-96
2023/12/02 20:26:18;;;;;;;1.20;0.70;;;;;;;;;;6216891;28;20058;-96
2023/12/02 20:29:21;;;;;;;1.52;0.88;;;;;;;;;;6231716;28;20056;-95
